Station Historical Data
Daily Summary for April 16, 2019 Units:  English    Metric   Both
« Previous Day
Next Day »
Daily Weekly Monthly Yearly Custom
  High: Low: Average:
Temperature: TemperatureC °F 8.2 °F 14 °F
Dew Point: DewpointC °F 4.9 °F 7.5 °F
Humidity: Humidity % 39 % 68 %
Wind Speed: WindSpeedKMH mph 0.0 mph 4.1 mph
Wind Gust: WindSpeedGustKMH mph - -
Wind:- - SE
Pressure: PressurehPa in 1016.3 in -
Precipitation: 0.0 in    
Historical Graphs
 
 
Tabular Data for April 16, 2019
Time Temperature Dew Point Pressure Wind Wind Speed Wind Gust Humidity Rainfall Rate (Hourly) solar Conditions
TemperatureC °F DewpointC °F PressurehPa in Calm     Humidity % HourlyPrecipMM in SolarRadiationWatts/m^2 W/m2 Conditions
00:03 11.1 °F 8.1 °F 1018.3 in Calm     82 % 0.0 in 0.00 W/m2 CLR
00:09 10.9 °F 8.0 °F 1018.4 in Calm     82 % 0.0 in 0.00 W/m2 CLR
00:14 10.8 °F 7.9 °F 1018.4 in Calm     82 % 0.0 in 0.00 W/m2 CLR
00:18 10.8 °F 8.0 °F 1018.5 in SE 3.2 mph 1.0 mph 83 % 0.0 in 0.00 W/m2 CLR
00:23 10.8 °F 7.8 °F 1018.5 in NNW 1.9 mph   82 % 0.0 in 0.00 W/m2 CLR
00:29 10.8 °F 7.8 °F 1018.6 in Calm     82 % 0.0 in 0.00 W/m2 CLR
00:34 10.8 °F 7.8 °F 1018.6 in Calm     82 % 0.0 in 0.00 W/m2 CLR
00:38 10.8 °F 7.8 °F 1018.7 in Calm     82 % 0.0 in 0.00 W/m2 CLR
00:44 10.8 °F 7.8 °F 1018.6 in Calm     82 % 0.0 in 0.00 W/m2 CLR
00:49 10.8 °F 7.8 °F 1018.6 in Calm     82 % 0.0 in 0.00 W/m2 CLR
00:53 10.7 °F 7.8 °F 1018.6 in Calm     82 % 0.0 in 0.00 W/m2 CLR
00:59 10.7 °F 7.8 °F 1018.6 in Calm     82 % 0.0 in 0.00 W/m2 CLR
01:04 10.7 °F 7.9 °F 1018.6 in Calm     83 % 0.0 in 0.00 W/m2 CLR
01:09 10.7 °F 7.9 °F 1018.6 in Calm     83 % 0.0 in 0.00 W/m2 CLR
01:14 10.6 °F 7.8 °F 1018.6 in Calm     83 % 0.0 in 0.00 W/m2 CLR
01:19 10.4 °F 7.7 °F 1018.5 in Calm     83 % 0.0 in 0.00 W/m2 CLR
01:23 10.4 °F 7.6 °F 1018.5 in Calm     83 % 0.0 in 0.00 W/m2 CLR
01:28 10.3 °F 7.6 °F 1018.5 in Calm     83 % 0.0 in 0.00 W/m2 CLR
01:33 10.3 °F 7.5 °F 1018.6 in Calm     83 % 0.0 in 0.00 W/m2 CLR
01:38 10.3 °F 7.7 °F 1018.5 in Calm     84 % 0.0 in 0.00 W/m2 CLR
01:44 10.2 °F 7.6 °F 1018.6 in Calm     84 % 0.0 in 0.00 W/m2 CLR
01:48 10.2 °F 7.6 °F 1018.6 in Calm     84 % 0.0 in 0.00 W/m2 CLR
01:53 10.1 °F 7.6 °F 1018.6 in NNW 1.6 mph   84 % 0.0 in 0.00 W/m2 CLR
01:59 10.1 °F 7.7 °F 1018.4 in NNW 1.9 mph 0.2 mph 85 % 0.0 in 0.00 W/m2 CLR
02:03 10.1 °F 7.7 °F 1018.4 in Calm     85 % 0.0 in 0.00 W/m2 CLR
02:08 10.1 °F 7.7 °F 1018.4 in Calm     85 % 0.0 in 0.00 W/m2 CLR
02:14 10.1 °F 7.5 °F 1018.3 in Calm     84 % 0.0 in 0.00 W/m2 CLR
02:18 10.1 °F 7.7 °F 1018.3 in Calm     85 % 0.0 in 0.00 W/m2 CLR
02:23 10.1 °F 7.7 °F 1018.2 in Calm     85 % 0.0 in 0.00 W/m2 CLR
02:29 10.1 °F 7.7 °F 1018.2 in Calm     85 % 0.0 in 0.00 W/m2 CLR
02:34 10.1 °F 7.7 °F 1018.1 in Calm     85 % 0.0 in 0.00 W/m2 CLR
02:38 10.1 °F 7.7 °F 1018.0 in Calm     85 % 0.0 in 0.00 W/m2 CLR
02:43 10.1 °F 7.7 °F 1018.0 in Calm     85 % 0.0 in 0.00 W/m2 CLR
02:49 10.1 °F 7.7 °F 1018.0 in Calm     85 % 0.0 in 0.00 W/m2 CLR
02:53 10.1 °F 7.7 °F 1018.0 in Calm     85 % 0.0 in 0.00 W/m2 CLR
02:58 10.0 °F 7.6 °F 1018.0 in Calm     85 % 0.0 in 0.00 W/m2 CLR
03:04 10.0 °F 7.6 °F 1017.9 in Calm     85 % 0.0 in 0.00 W/m2 CLR
03:09 9.9 °F 7.6 °F 1017.9 in Calm     85 % 0.0 in 0.00 W/m2 CLR
03:13 9.9 °F 7.5 °F 1017.9 in Calm     85 % 0.0 in 0.00 W/m2 CLR
03:19 9.9 °F 7.5 °F 1017.9 in Calm     85 % 0.0 in 0.00 W/m2 CLR
03:24 9.8 °F 7.4 °F 1017.8 in Calm     85 % 0.0 in 0.00 W/m2 CLR
03:28 9.8 °F 7.6 °F 1017.9 in Calm     86 % 0.0 in 0.00 W/m2 CLR
03:34 9.7 °F 7.5 °F 1017.8 in NNW 3.7 mph 1.4 mph 86 % 0.0 in 0.00 W/m2 CLR
03:39 9.7 °F 7.4 °F 1017.8 in NE 3.7 mph 1.8 mph 86 % 0.0 in 0.00 W/m2 CLR
03:44 9.7 °F 7.6 °F 1017.8 in NE 3.7 mph 1.8 mph 87 % 0.0 in 0.00 W/m2 CLR
03:48 9.6 °F 7.6 °F 1017.8 in NE 3.7 mph 1.4 mph 87 % 0.0 in 0.00 W/m2 CLR
03:53 9.6 °F 7.5 °F 1017.8 in Calm     87 % 0.0 in 0.00 W/m2 CLR
03:58 9.5 °F 7.4 °F 1017.8 in Calm     87 % 0.0 in 0.00 W/m2 CLR
04:03 9.4 °F 7.4 °F 1017.8 in NE 1.9 mph 0.3 mph 87 % 0.0 in 0.00 W/m2 CLR
04:08 9.4 °F 7.3 °F 1017.7 in NE 3.7 mph 2.4 mph 87 % 0.0 in 0.00 W/m2 CLR
04:13 9.3 °F 7.4 °F 1017.7 in NE 1.9 mph 1.0 mph 88 % 0.0 in 0.00 W/m2 CLR
04:18 9.3 °F 7.4 °F 1017.6 in NE 1.9 mph 0.5 mph 88 % 0.0 in 0.00 W/m2 CLR
04:23 9.2 °F 7.3 °F 1017.6 in NE 3.7 mph 2.7 mph 88 % 0.0 in 0.00 W/m2 CLR
04:28 9.1 °F 7.2 °F 1017.6 in NE 3.7 mph 2.3 mph 88 % 0.0 in 0.00 W/m2 CLR
04:34 9.0 °F 7.1 °F 1017.6 in NE 3.7 mph 1.9 mph 88 % 0.0 in 0.00 W/m2 CLR
04:38 8.9 °F 7.0 °F 1017.7 in NE 1.9 mph 0.2 mph 88 % 0.0 in 0.00 W/m2 CLR
04:43 8.8 °F 6.9 °F 1017.7 in NE 1.6 mph   88 % 0.0 in 0.00 W/m2 CLR
04:49 8.7 °F 6.8 °F 1017.6 in NE 1.9 mph 0.5 mph 88 % 0.0 in 0.00 W/m2 CLR
04:53 8.7 °F 6.8 °F 1017.7 in NE 3.2 mph 1.6 mph 88 % 0.0 in 0.00 W/m2 CLR
04:58 8.6 °F 6.9 °F 1017.7 in NE 3.7 mph 1.8 mph 89 % 0.0 in 0.00 W/m2 CLR
05:04 8.6 °F 6.8 °F 1017.7 in NE 3.7 mph 2.1 mph 89 % 0.0 in 0.00 W/m2 CLR
05:09 8.5 °F 6.8 °F 1017.8 in NE 1.9 mph 0.6 mph 89 % 0.0 in 0.00 W/m2 CLR
05:13 8.5 °F 6.8 °F 1017.8 in Calm     89 % 0.0 in 0.00 W/m2 CLR
05:19 8.4 °F 6.9 °F 1017.9 in NE 1.9 mph 1.0 mph 90 % 0.0 in 0.00 W/m2 CLR
05:24 8.4 °F 6.9 °F 1017.9 in NE 1.9 mph 1.6 mph 90 % 0.0 in 0.00 W/m2 CLR
05:28 8.4 °F 6.9 °F 1017.9 in NE 3.7 mph 2.3 mph 90 % 0.0 in 0.00 W/m2 CLR
05:33 8.4 °F 6.9 °F 1017.9 in NE 3.2 mph 1.9 mph 90 % 0.0 in 0.00 W/m2 CLR
05:39 8.4 °F 7.1 °F 1017.9 in NE 3.7 mph 1.1 mph 91 % 0.0 in 0.00 W/m2 CLR
05:44 8.4 °F 7.1 °F 1017.9 in NE 3.7 mph 1.8 mph 91 % 0.0 in 0.00 W/m2 CLR
05:48 8.4 °F 7.1 °F 1017.8 in NE 1.9 mph   91 % 0.0 in 0.00 W/m2 CLR
05:54 8.4 °F 7.1 °F 1017.8 in NE 1.9 mph 0.5 mph 91 % 0.0 in 0.00 W/m2 CLR
05:59 8.4 °F 7.1 °F 1017.9 in Calm     91 % 0.0 in 0.00 W/m2 CLR
06:03 8.4 °F 7.0 °F 1017.8 in Calm     91 % 0.0 in 0.00 W/m2 CLR
06:09 8.4 °F 7.0 °F 1017.8 in Calm     91 % 0.0 in 0.00 W/m2 CLR
06:14 8.3 °F 6.9 °F 1017.8 in Calm     91 % 0.0 in 0.00 W/m2 CLR
06:19 8.3 °F 6.9 °F 1017.7 in NE 1.9 mph 0.2 mph 91 % 0.0 in 0.00 W/m2 CLR
06:24 8.3 °F 7.1 °F 1017.8 in Calm     92 % 0.0 in 0.00 W/m2 CLR
06:28 8.2 °F 7.0 °F 1017.8 in Calm     92 % 0.0 in 5.00 W/m2 CLR
06:33 8.2 °F 6.8 °F 1017.8 in Calm     91 % 0.0 in 7.00 W/m2 CLR
06:38 8.2 °F 6.9 °F 1017.8 in NE 1.6 mph 0.2 mph 92 % 0.0 in 9.00 W/m2 CLR
06:43 8.2 °F 7.0 °F 1017.8 in Calm     92 % 0.0 in 11.00 W/m2 CLR
06:48 8.2 °F 7.0 °F 1017.8 in Calm     92 % 0.0 in 18.00 W/m2 FEW
06:53 8.2 °F 7.0 °F 1017.8 in Calm     92 % 0.0 in 23.00 W/m2 FEW
06:58 8.2 °F 7.0 °F 1017.8 in Calm     92 % 0.0 in 28.00 W/m2 FEW
07:03 8.3 °F 7.1 °F 1017.9 in Calm     92 % 0.0 in 33.00 W/m2 FEW
07:08 8.3 °F 7.1 °F 1017.9 in Calm     92 % 0.0 in 37.00 W/m2 SCT
07:13 8.3 °F 7.1 °F 1017.9 in Calm     92 % 0.0 in 42.00 W/m2 SCT
07:18 8.3 °F 7.2 °F 1017.9 in Calm     93 % 0.0 in 47.00 W/m2 SCT
07:24 8.3 °F 7.3 °F 1018.0 in Calm     93 % 0.0 in 53.00 W/m2 SCT
07:28 8.4 °F 7.3 °F 1018.0 in Calm     93 % 0.0 in 58.00 W/m2 SCT
07:33 8.4 °F 7.4 °F 1018.1 in Calm     93 % 0.0 in 69.00 W/m2 SCT
07:39 8.6 °F 7.5 °F 1018.2 in Calm     93 % 0.0 in 69.00 W/m2 SCT
07:43 8.7 °F 7.6 °F 1018.3 in Calm     93 % 0.0 in 81.00 W/m2 SCT
07:48 8.8 °F 7.7 °F 1018.2 in Calm     93 % 0.0 in 86.00 W/m2 SCT
07:54 8.8 °F 7.6 °F 1018.3 in Calm     92 % 0.0 in 102.00 W/m2 SCT
07:59 8.6 °F 7.4 °F 1018.4 in North 6.4 mph 4.7 mph 92 % 0.0 in 130.00 W/m2 SCT
08:03 8.4 °F 7.4 °F 1018.4 in North 4.8 mph 3.2 mph 93 % 0.0 in 146.00 W/m2 SCT
08:09 8.6 °F 7.5 °F 1018.4 in North 4.8 mph 3.2 mph 93 % 0.0 in 162.00 W/m2 FEW
08:14 8.8 °F 7.7 °F 1018.5 in North 6.4 mph 4.3 mph 93 % 0.0 in 174.00 W/m2 FEW
08:18 9.0 °F 7.9 °F 1018.5 in North 6.4 mph 4.7 mph 93 % 0.0 in 181.00 W/m2 FEW
08:24 9.1 °F 8.1 °F 1018.5 in North 6.4 mph 4.8 mph 93 % 0.0 in 216.00 W/m2 FEW
08:29 9.3 °F 8.1 °F 1018.5 in North 5.6 mph 3.5 mph 92 % 0.0 in 237.00 W/m2 FEW
08:34 9.9 °F 8.7 °F 1018.5 in NE 5.6 mph 2.9 mph 92 % 0.0 in 237.00 W/m2 FEW
08:39 10.2 °F 8.6 °F 1018.5 in ENE 6.4 mph 3.4 mph 90 % 0.0 in 220.00 W/m2 FEW
08:44 10.3 °F 8.4 °F 1018.5 in ENE 5.6 mph 2.4 mph 88 % 0.0 in 230.00 W/m2 FEW
08:49 10.6 °F 8.7 °F 1018.4 in ENE 3.7 mph 2.7 mph 88 % 0.0 in 211.00 W/m2 FEW
08:53 10.8 °F 8.7 °F 1018.4 in NE 5.6 mph 3.2 mph 87 % 0.0 in 204.00 W/m2 SCT
08:58 10.9 °F 8.9 °F 1018.3 in ENE 3.7 mph 1.6 mph 87 % 0.0 in 190.00 W/m2 SCT
09:03 11.1 °F 8.6 °F 1018.4 in ENE 5.6 mph 3.9 mph 85 % 0.0 in 192.00 W/m2 SCT
09:08 11.2 °F 8.7 °F 1018.4 in ENE 5.6 mph 3.1 mph 85 % 0.0 in 197.00 W/m2 SCT
09:13 11.2 °F 8.7 °F 1018.4 in East 5.6 mph 3.1 mph 85 % 0.0 in 213.00 W/m2 SCT
09:18 11.3 °F 8.7 °F 1018.4 in ENE 5.6 mph 1.9 mph 84 % 0.0 in 271.00 W/m2 SCT
09:23 11.6 °F 9.1 °F 1018.4 in East 5.6 mph 2.4 mph 85 % 0.0 in 301.00 W/m2 SCT
09:28 11.7 °F 9.1 °F 1018.5 in East 1.9 mph 1.0 mph 84 % 0.0 in 283.00 W/m2 SCT
09:33 11.9 °F 9.3 °F 1018.5 in East 5.6 mph 3.2 mph 84 % 0.0 in 316.00 W/m2 SCT
09:38 11.9 °F 9.2 °F 1018.5 in NE 5.6 mph 3.4 mph 83 % 0.0 in 357.00 W/m2 SCT
09:44 12.2 °F 9.4 °F 1018.6 in ENE 5.6 mph 4.0 mph 83 % 0.0 in 415.00 W/m2 FEW
09:48 12.4 °F 9.3 °F 1018.6 in East 8.0 mph 4.7 mph 81 % 0.0 in 396.00 W/m2 FEW
09:53 12.6 °F 9.2 °F 1018.4 in East 5.6 mph 4.0 mph 80 % 0.0 in 425.00 W/m2 FEW
09:59 12.7 °F 9.2 °F 1018.5 in East 3.7 mph 2.1 mph 79 % 0.0 in 380.00 W/m2 FEW
10:03 12.9 °F 9.3 °F 1018.5 in North 6.4 mph 4.5 mph 79 % 0.0 in 434.00 W/m2 FEW
10:08 12.8 °F 9.1 °F 1018.6 in NNE 7.4 mph 5.6 mph 78 % 0.0 in 476.00 W/m2 FEW
10:14 13.1 °F 9.3 °F 1018.6 in NNE 6.4 mph 4.5 mph 78 % 0.0 in 496.00 W/m2 FEW
10:19 13.3 °F 9.2 °F 1018.6 in NNE 5.6 mph 2.7 mph 76 % 0.0 in 431.00 W/m2 FEW
10:23 13.4 °F 9.4 °F 1018.6 in ESE 4.8 mph 2.1 mph 77 % 0.0 in 503.00 W/m2 FEW
10:29 13.9 °F 9.6 °F 1018.6 in East 5.6 mph 3.5 mph 75 % 0.0 in 492.00 W/m2 FEW
10:34 13.8 °F 8.9 °F 1018.6 in SE 5.6 mph 3.5 mph 72 % 0.0 in 464.00 W/m2 FEW
10:38 13.9 °F 9.2 °F 1018.6 in ESE 7.4 mph 5.3 mph 73 % 0.0 in 487.00 W/m2 FEW
10:44 14.3 °F 9.1 °F 1018.6 in SE 6.4 mph 4.8 mph 71 % 0.0 in 534.00 W/m2 FEW
10:49 14.4 °F 9.2 °F 1018.6 in SE 1.9 mph 0.2 mph 71 % 0.0 in 582.00 W/m2 FEW
10:54 14.9 °F 9.1 °F 1018.6 in ENE 8.0 mph 5.8 mph 68 % 0.0 in 540.00 W/m2 FEW
10:59 15.0 °F 9.1 °F 1018.7 in ESE 5.6 mph 2.4 mph 68 % 0.0 in 408.00 W/m2 FEW
11:04 14.8 °F 8.9 °F 1018.6 in ESE 6.4 mph 4.2 mph 68 % 0.0 in 404.00 W/m2 SCT
11:09 14.9 °F 9.1 °F 1018.6 in ESE 5.6 mph 2.3 mph 68 % 0.0 in 557.00 W/m2 SCT
11:13 15.2 °F 9.1 °F 1018.5 in SE 4.8 mph 2.1 mph 67 % 0.0 in 573.00 W/m2 FEW
11:19 15.5 °F 9.2 °F 1018.5 in NE 5.6 mph 4.0 mph 66 % 0.0 in 534.00 W/m2 FEW
11:24 15.5 °F 8.9 °F 1018.5 in SE 3.7 mph 2.4 mph 65 % 0.0 in 497.00 W/m2 FEW
11:28 15.8 °F 9.2 °F 1018.4 in SE 5.6 mph 3.2 mph 65 % 0.0 in 538.00 W/m2 FEW
11:33 15.7 °F 9.2 °F 1018.4 in ENE 5.6 mph 3.7 mph 65 % 0.0 in 589.00 W/m2 FEW
11:38 16.1 °F 9.2 °F 1018.4 in SE 5.6 mph 1.3 mph 64 % 0.0 in 694.00 W/m2 FEW
11:43 16.3 °F 9.9 °F 1018.4 in SE 6.4 mph 4.0 mph 66 % 0.0 in 680.00 W/m2 CLR
11:48 16.3 °F 9.5 °F 1018.4 in ESE 13.0 mph 9.0 mph 64 % 0.0 in 712.00 W/m2 CLR
11:53 16.5 °F 8.9 °F 1018.4 in ENE 8.0 mph 4.7 mph 61 % 0.0 in 749.00 W/m2 CLR
11:58 16.3 °F 8.7 °F 1018.4 in ESE 8.0 mph 5.5 mph 61 % 0.0 in 761.00 W/m2 CLR
12:03 16.1 °F 8.8 °F 1018.3 in SE 11.3 mph 7.1 mph 62 % 0.0 in 675.00 W/m2 CLR
12:08 16.3 °F 9.1 °F 1018.3 in NE 8.0 mph 4.8 mph 62 % 0.0 in 589.00 W/m2 FEW
12:13 16.7 °F 8.6 °F 1018.2 in SSW 5.6 mph 2.4 mph 59 % 0.0 in 747.00 W/m2 FEW
12:19 16.7 °F 8.6 °F 1018.2 in SSE 9.7 mph 6.1 mph 59 % 0.0 in 724.00 W/m2 CLR
12:23 16.6 °F 8.8 °F 1018.2 in SE 5.6 mph 2.1 mph 60 % 0.0 in 763.00 W/m2 CLR
12:28 17.1 °F 8.8 °F 1018.2 in East 9.3 mph 2.4 mph 58 % 0.0 in 647.00 W/m2 CLR
12:34 16.8 °F 8.7 °F 1018.2 in North 6.4 mph 4.0 mph 59 % 0.0 in 772.00 W/m2 CLR
12:38 16.8 °F 9.2 °F 1018.2 in North 8.0 mph 5.5 mph 61 % 0.0 in 786.00 W/m2 CLR
12:43 16.8 °F 9.0 °F 1018.1 in North 6.4 mph 3.5 mph 60 % 0.0 in 738.00 W/m2 CLR
12:49 17.4 °F 8.8 °F 1018.1 in ESE 11.3 mph 5.6 mph 57 % 0.0 in 756.00 W/m2 CLR
12:54 17.4 °F 8.3 °F 1018.1 in SE 9.7 mph 6.8 mph 55 % 0.0 in 689.00 W/m2 CLR
12:58 17.1 °F 8.3 °F 1018.0 in SSE 7.4 mph 4.3 mph 56 % 0.0 in 742.00 W/m2 CLR
13:04 17.3 °F 8.7 °F 1018.0 in ESE 6.4 mph 3.4 mph 57 % 0.0 in 703.00 W/m2 CLR
13:09 17.4 °F 8.3 °F 1018.0 in SSE 11.3 mph 7.9 mph 55 % 0.0 in 729.00 W/m2 CLR
13:13 17.4 °F 7.4 °F 1017.9 in SE 14.8 mph 8.2 mph 52 % 0.0 in 789.00 W/m2 CLR
13:19 17.6 °F 7.3 °F 1017.9 in East 11.3 mph 6.9 mph 51 % 0.0 in 759.00 W/m2 CLR
13:24 17.7 °F 7.4 °F 1017.8 in NW 4.8 mph 2.7 mph 51 % 0.0 in 770.00 W/m2 CLR
13:29 17.6 °F 7.3 °F 1017.7 in SSE 3.7 mph 1.0 mph 51 % 0.0 in 777.00 W/m2 CLR
13:34 17.6 °F 7.6 °F 1017.7 in SSE 9.7 mph 7.2 mph 52 % 0.0 in 759.00 W/m2 CLR
13:39 17.9 °F 7.7 °F 1017.6 in South 9.7 mph 7.4 mph 51 % 0.0 in 782.00 W/m2 CLR
13:44 17.9 °F 6.7 °F 1017.6 in South 5.6 mph 3.4 mph 48 % 0.0 in 849.00 W/m2 CLR
13:48 17.5 °F 7.2 °F 1017.4 in South 13.0 mph 6.1 mph 51 % 0.0 in 587.00 W/m2 CLR
13:54 18.1 °F 8.1 °F 1017.4 in ESE 5.6 mph 3.2 mph 52 % 0.0 in 844.00 W/m2 CLR
13:59 18.3 °F 7.7 °F 1017.4 in ESE 13.0 mph 4.3 mph 50 % 0.0 in 735.00 W/m2 CLR
14:03 18.1 °F 7.5 °F 1017.3 in ESE 6.4 mph 3.9 mph 50 % 0.0 in 816.00 W/m2 CLR
14:08 18.3 °F 8.3 °F 1017.3 in East 5.6 mph 2.6 mph 52 % 0.0 in 791.00 W/m2 CLR
14:13 18.8 °F 7.8 °F 1017.3 in SE 11.1 mph 6.1 mph 49 % 0.0 in 744.00 W/m2 CLR
14:18 18.4 °F 7.2 °F 1017.4 in SE 14.8 mph 11.6 mph 48 % 0.0 in 754.00 W/m2 CLR
14:23 18.5 °F 6.7 °F 1017.4 in SE 13.0 mph 8.8 mph 46 % 0.0 in 731.00 W/m2 CLR
14:28 18.1 °F 6.3 °F 1017.4 in SE 6.4 mph 5.3 mph 46 % 0.0 in 712.00 W/m2 CLR
14:33 18.0 °F 5.9 °F 1017.5 in SE 3.7 mph 1.9 mph 45 % 0.0 in 775.00 W/m2 CLR
14:38 18.2 °F 6.1 °F 1017.2 in SSE 6.4 mph 4.3 mph 45 % 0.0 in 773.00 W/m2 CLR
14:43 18.4 °F 6.6 °F 1017.3 in South 3.7 mph 0.2 mph 46 % 0.0 in 761.00 W/m2 CLR
14:48 18.9 °F 7.0 °F 1017.2 in ENE 9.7 mph 6.8 mph 46 % 0.0 in 721.00 W/m2 CLR
14:54 18.9 °F 6.7 °F 1017.3 in ENE 13.0 mph 6.6 mph 45 % 0.0 in 733.00 W/m2 CLR
14:58 18.7 °F 7.1 °F 1017.2 in ESE 5.6 mph 3.5 mph 47 % 0.0 in 788.00 W/m2 CLR
15:03 18.7 °F 6.6 °F 1017.1 in North 4.8 mph 2.1 mph 45 % 0.0 in 761.00 W/m2 CLR
15:09 18.9 °F 6.7 °F 1017.2 in NE 11.3 mph 7.1 mph 45 % 0.0 in 749.00 W/m2 CLR
15:13 19.1 °F 6.2 °F 1017.2 in NNE 5.6 mph 2.4 mph 43 % 0.0 in 691.00 W/m2 CLR
15:18 18.8 °F 5.6 °F 1017.1 in NNE 9.7 mph 5.5 mph 42 % 0.0 in 673.00 W/m2 CLR
15:24 18.7 °F 6.6 °F 1017.1 in East 8.0 mph 5.5 mph 45 % 0.0 in 649.00 W/m2 CLR
15:29 18.8 °F 6.9 °F 1017.1 in North 5.6 mph 4.7 mph 46 % 0.0 in 657.00 W/m2 CLR
15:33 19.1 °F 6.8 °F 1017.0 in NE 5.6 mph 3.2 mph 45 % 0.0 in 691.00 W/m2 CLR
15:39 19.5 °F 6.9 °F 1016.9 in East 5.6 mph 1.4 mph 44 % 0.0 in 675.00 W/m2 CLR
15:44 19.1 °F 7.5 °F 1017.0 in NNE 6.4 mph 4.7 mph 47 % 0.0 in 677.00 W/m2 CLR
15:48 19.2 °F 6.3 °F 1016.9 in NNE 9.7 mph 6.1 mph 43 % 0.0 in 656.00 W/m2 CLR
15:54 19.2 °F 6.9 °F 1017.1 in North 9.3 mph 5.3 mph 45 % 0.0 in 552.00 W/m2 CLR
15:59 19.0 °F 6.8 °F 1017.0 in NNW 6.4 mph 6.1 mph 45 % 0.0 in 552.00 W/m2 CLR
16:03 18.7 °F 6.2 °F 1016.9 in North 8.0 mph 6.9 mph 44 % 0.0 in 629.00 W/m2 CLR
16:09 18.6 °F 5.7 °F 1016.8 in NNW 6.4 mph 5.6 mph 43 % 0.0 in 566.00 W/m2 CLR
16:14 19.1 °F 6.2 °F 1016.7 in ENE 14.5 mph 8.4 mph 43 % 0.0 in 631.00 W/m2 CLR
16:19 19.2 °F 5.6 °F 1016.9 in North 6.4 mph 5.0 mph 41 % 0.0 in 598.00 W/m2 CLR
16:24 19.0 °F 5.4 °F 1016.8 in NE 9.7 mph 6.8 mph 41 % 0.0 in 599.00 W/m2 CLR
16:29 19.4 °F 5.8 °F 1016.7 in ENE 5.6 mph 4.0 mph 41 % 0.0 in 631.00 W/m2 CLR
16:34 19.2 °F 5.7 °F 1016.6 in ENE 5.6 mph 2.7 mph 41 % 0.0 in 679.00 W/m2 CLR
16:39 19.5 °F 5.9 °F 1016.5 in ENE 11.3 mph 6.3 mph 41 % 0.0 in 640.00 W/m2 CLR
16:43 19.7 °F 5.3 °F 1016.5 in ENE 7.4 mph 4.0 mph 39 % 0.0 in 610.00 W/m2 CLR
16:48 19.4 °F 5.1 °F 1016.3 in North 5.6 mph 3.4 mph 39 % 0.0 in 529.00 W/m2 CLR
16:53 19.2 °F 5.2 °F 1016.5 in West 6.4 mph 5.0 mph 40 % 0.0 in 519.00 W/m2 CLR
16:58 19.4 °F 5.4 °F 1016.5 in NW 8.0 mph 5.6 mph 40 % 0.0 in 489.00 W/m2 CLR
17:03 19.3 °F 5.7 °F 1016.6 in NNE 3.7 mph 0.8 mph 41 % 0.0 in 482.00 W/m2 CLR
17:08 19.5 °F 5.2 °F 1016.7 in ESE 8.0 mph 5.0 mph 39 % 0.0 in 476.00 W/m2 CLR
17:13 19.4 °F 5.1 °F 1016.7 in SE 6.4 mph 3.9 mph 39 % 0.0 in 403.00 W/m2 CLR
17:18 19.2 °F 5.2 °F 1016.7 in SE 5.6 mph 1.8 mph 40 % 0.0 in 373.00 W/m2 CLR
17:23 19.2 °F 5.2 °F 1016.7 in SE 6.4 mph 3.4 mph 40 % 0.0 in 360.00 W/m2 CLR
17:29 19.2 °F 4.9 °F 1016.7 in ENE 5.6 mph 3.2 mph 39 % 0.0 in 323.00 W/m2 CLR
17:33 19.1 °F 5.5 °F 1016.7 in NE 1.9 mph 0.2 mph 41 % 0.0 in 279.00 W/m2 FEW
17:38 19.4 °F 5.4 °F 1016.7 in NE 1.9 mph 0.8 mph 40 % 0.0 in 255.00 W/m2 FEW
17:44 19.3 °F 5.7 °F 1016.7 in ESE 11.3 mph 6.0 mph 41 % 0.0 in 216.00 W/m2 SCT
17:48 19.2 °F 5.6 °F 1016.8 in ESE 6.4 mph 5.3 mph 41 % 0.0 in 207.00 W/m2 SCT
17:53 18.9 °F 5.1 °F 1016.7 in ESE 6.4 mph 3.9 mph 40 % 0.0 in 165.00 W/m2 SCT
17:59 18.8 °F 5.2 °F 1016.7 in East 3.7 mph 1.6 mph 41 % 0.0 in 197.00 W/m2 SCT
18:04 18.8 °F 6.3 °F 1016.7 in East 6.4 mph 4.7 mph 44 % 0.0 in 195.00 W/m2 SCT
18:08 18.7 °F 5.6 °F 1016.9 in East 7.4 mph 4.0 mph 42 % 0.0 in 185.00 W/m2 FEW
18:14 18.7 °F 5.8 °F 1016.9 in East 3.2 mph 1.4 mph 43 % 0.0 in 188.00 W/m2 FEW
18:19 18.7 °F 5.8 °F 1016.9 in East 5.6 mph 3.5 mph 43 % 0.0 in 130.00 W/m2 FEW
18:23 18.6 °F 5.8 °F 1016.9 in ENE 6.4 mph 4.7 mph 43 % 0.0 in 123.00 W/m2 SCT
18:29 18.6 °F 5.7 °F 1016.9 in ENE 3.7 mph 1.9 mph 43 % 0.0 in 116.00 W/m2 SCT
18:34 18.6 °F 5.8 °F 1017.1 in ENE 5.6 mph 2.7 mph 43 % 0.0 in 109.00 W/m2 SCT
18:38 18.6 °F 6.1 °F 1017.0 in ENE 3.7 mph 2.1 mph 44 % 0.0 in 104.00 W/m2 SCT
18:44 18.6 °F 6.1 °F 1017.0 in ENE 1.9 mph 0.8 mph 44 % 0.0 in 100.00 W/m2 SCT
18:49 18.6 °F 6.4 °F 1017.0 in ENE 1.9 mph 0.5 mph 45 % 0.0 in 93.00 W/m2 SCT
18:54 18.4 °F 6.3 °F 1016.9 in ENE 3.7 mph 2.1 mph 45 % 0.0 in 91.00 W/m2 SCT
18:58 18.4 °F 6.3 °F 1017.0 in ENE 3.2 mph 1.9 mph 45 % 0.0 in 81.00 W/m2 SCT
19:04 18.4 °F 6.2 °F 1017.0 in ENE 3.7 mph 1.4 mph 45 % 0.0 in 74.00 W/m2 FEW
19:09 18.3 °F 6.1 °F 1017.0 in ENE 3.7 mph 1.1 mph 45 % 0.0 in 69.00 W/m2 FEW
19:12 18.3 °F 6.2 °F 1017.0 in ENE 3.7 mph 2.3 mph 45 % 0.0 in 67.00 W/m2 FEW
19:18 18.3 °F 6.4 °F 1017.0 in ENE 1.9 mph 1.1 mph 46 % 0.0 in 63.00 W/m2 FEW
19:23 18.3 °F 6.8 °F 1017.0 in ENE 1.9 mph 0.6 mph 47 % 0.0 in 60.00 W/m2 FEW
19:28 18.2 °F 6.3 °F 1017.1 in Calm     46 % 0.0 in 53.00 W/m2 FEW
19:33 18.2 °F 6.1 °F 1017.1 in Calm     45 % 0.0 in 44.00 W/m2 FEW
19:38 18.1 °F 6.0 °F 1017.1 in Calm     45 % 0.0 in 35.00 W/m2 FEW
19:43 18.1 °F 6.0 °F 1017.2 in Calm     45 % 0.0 in 30.00 W/m2 FEW
19:48 18.1 °F 5.9 °F 1017.2 in Calm     45 % 0.0 in 26.00 W/m2 FEW
19:53 18.0 °F 5.9 °F 1017.2 in Calm     45 % 0.0 in 21.00 W/m2 FEW
19:58 17.9 °F 6.8 °F 1017.3 in ESE 5.6 mph 3.5 mph 48 % 0.0 in 16.00 W/m2 FEW
20:04 17.8 °F 6.9 °F 1017.3 in SW 8.0 mph 3.4 mph 49 % 0.0 in 9.00 W/m2 FEW
20:08 17.8 °F 6.6 °F 1017.4 in SW 7.4 mph 5.3 mph 48 % 0.0 in 5.00 W/m2 FEW
20:13 17.7 °F 6.9 °F 1017.4 in SW 6.4 mph 4.0 mph 49 % 0.0 in 0.00 W/m2 FEW
20:19 17.7 °F 6.8 °F 1017.4 in SW 5.6 mph 3.1 mph 49 % 0.0 in 0.00 W/m2 FEW
20:23 17.6 °F 7.1 °F 1017.6 in SW 3.7 mph 2.1 mph 50 % 0.0 in 0.00 W/m2 FEW
20:28 17.5 °F 7.2 °F 1017.6 in SW 3.7 mph 2.3 mph 51 % 0.0 in 0.00 W/m2 FEW
20:34 17.3 °F 7.7 °F 1017.5 in SW 5.6 mph 1.8 mph 53 % 0.0 in 0.00 W/m2 FEW
20:39 17.2 °F 7.8 °F 1017.6 in SW 1.6 mph   54 % 0.0 in 0.00 W/m2 FEW
20:43 17.1 °F 8.0 °F 1017.6 in Calm     55 % 0.0 in 0.00 W/m2 FEW
20:49 17.1 °F 8.2 °F 1017.6 in Calm     56 % 0.0 in 0.00 W/m2 FEW
20:54 16.9 °F 8.1 °F 1017.7 in SW 3.7 mph 2.3 mph 56 % 0.0 in 0.00 W/m2 FEW
20:58 16.8 °F 7.7 °F 1017.7 in SW 1.9 mph 1.1 mph 55 % 0.0 in 0.00 W/m2 FEW
21:04 16.8 °F 7.9 °F 1017.7 in SW 3.7 mph 1.4 mph 56 % 0.0 in 0.00 W/m2 FEW
21:09 16.7 °F 8.2 °F 1017.7 in SW 3.7 mph 1.8 mph 57 % 0.0 in 0.00 W/m2 FEW
21:14 16.7 °F 8.1 °F 1017.9 in SW 3.7 mph 1.9 mph 57 % 0.0 in 0.00 W/m2 FEW
21:19 16.6 °F 8.3 °F 1017.8 in SW 1.9 mph   58 % 0.0 in 0.00 W/m2 FEW
21:24 16.5 °F 8.2 °F 1017.8 in Calm     58 % 0.0 in 0.00 W/m2 FEW
21:29 16.4 °F 8.1 °F 1017.9 in SW 1.9 mph 0.2 mph 58 % 0.0 in 0.00 W/m2 FEW
21:34 16.3 °F 8.6 °F 1017.9 in Calm     60 % 0.0 in 0.00 W/m2 FEW
21:39 16.2 °F 8.4 °F 1017.9 in Calm     60 % 0.0 in 0.00 W/m2 FEW
21:43 16.2 °F 8.6 °F 1017.9 in Calm     61 % 0.0 in 0.00 W/m2 FEW
21:48 16.1 °F 8.8 °F 1018.0 in SW 3.7 mph 1.1 mph 62 % 0.0 in 0.00 W/m2 FEW
21:53 16.0 °F 8.7 °F 1018.0 in SW 3.7 mph 1.6 mph 62 % 0.0 in 0.00 W/m2 FEW
21:58 15.9 °F 8.9 °F 1018.0 in SW 3.7 mph 1.8 mph 63 % 0.0 in 0.00 W/m2 FEW
22:04 15.8 °F 9.1 °F 1018.0 in SW 5.6 mph 3.4 mph 64 % 0.0 in 0.00 W/m2 FEW
22:08 15.8 °F 9.0 °F 1018.0 in SW 4.8 mph 2.7 mph 64 % 0.0 in 0.00 W/m2 FEW
22:13 15.7 °F 8.9 °F 1018.0 in SW 5.6 mph 3.4 mph 64 % 0.0 in 0.00 W/m2 FEW
22:19 15.6 °F 9.1 °F 1018.1 in SW 3.7 mph 2.6 mph 65 % 0.0 in 0.00 W/m2 FEW
22:23 15.6 °F 9.0 °F 1018.1 in SW 3.2 mph 1.8 mph 65 % 0.0 in 0.00 W/m2 FEW
22:28 15.5 °F 9.2 °F 1018.1 in SW 3.7 mph 1.9 mph 66 % 0.0 in 0.00 W/m2 FEW
22:34 15.4 °F 9.1 °F 1018.1 in SW 3.7 mph 1.1 mph 66 % 0.0 in 0.00 W/m2 FEW
22:38 15.3 °F 9.0 °F 1018.1 in SW 1.9 mph 1.3 mph 66 % 0.0 in 0.00 W/m2 FEW
22:43 15.3 °F 9.0 °F 1018.1 in SW 3.7 mph 2.6 mph 66 % 0.0 in 0.00 W/m2 FEW
22:48 15.3 °F 8.9 °F 1018.1 in WSW 5.6 mph 3.1 mph 66 % 0.0 in 0.00 W/m2 FEW
22:54 15.3 °F 8.9 °F 1018.1 in WSW 5.6 mph 3.5 mph 66 % 0.0 in 0.00 W/m2 FEW
22:58 15.3 °F 8.9 °F 1018.0 in WNW 4.8 mph 2.7 mph 66 % 0.0 in 0.00 W/m2 FEW
23:03 15.2 °F 8.9 °F 1018.1 in West 5.6 mph 1.8 mph 66 % 0.0 in 0.00 W/m2 FEW
23:09 15.2 °F 8.8 °F 1018.0 in West 5.6 mph 3.2 mph 66 % 0.0 in 0.00 W/m2 FEW
23:13 15.2 °F 8.6 °F 1018.0 in West 6.4 mph 4.0 mph 65 % 0.0 in 0.00 W/m2 FEW
23:18 15.1 °F 8.6 °F 1018.0 in WNW 8.0 mph 4.8 mph 65 % 0.0 in 0.00 W/m2 FEW
23:24 15.1 °F 8.6 °F 1018.0 in WNW 6.4 mph 4.2 mph 65 % 0.0 in 0.00 W/m2 FEW
23:29 15.1 °F 8.6 °F 1018.0 in WNW 5.6 mph 2.6 mph 65 % 0.0 in 0.00 W/m2 FEW
23:33 15.1 °F 8.5 °F 1018.0 in WNW 5.6 mph 4.0 mph 65 % 0.0 in 0.00 W/m2 FEW
23:39 15.0 °F 8.7 °F 1018.0 in WNW 5.6 mph 2.6 mph 66 % 0.0 in 0.00 W/m2 FEW
23:44 15.0 °F 8.7 °F 1018.0 in WNW 5.6 mph 2.9 mph 66 % 0.0 in 0.00 W/m2 FEW
23:48 14.9 °F 8.7 °F 1018.0 in WNW 5.6 mph 3.4 mph 66 % 0.0 in 0.00 W/m2 FEW
23:54 14.8 °F 8.6 °F 1018.0 in WNW 5.6 mph 3.2 mph 66 % 0.0 in 0.00 W/m2 FEW
23:59 14.8 °F 8.5 °F 1018.0 in WNW 5.6 mph 4.0 mph 66 % 0.0 in 0.00 W/m2 FEW
Juneau County Weather
Compliments of Weather Underground - 3.5 mb